sensor_id;sensor_type;location;lat;lon;timestamp;temperature;humidity
38458;DHT22;24239;48.058;10.486;2023-01-10T00:01:31;2.50;99.90
38458;DHT22;24239;48.058;10.486;2023-01-10T00:03:57;2.40;99.90
38458;DHT22;24239;48.058;10.486;2023-01-10T00:06:24;2.40;99.90
38458;DHT22;24239;48.058;10.486;2023-01-10T00:08:51;2.40;99.90
38458;DHT22;24239;48.058;10.486;2023-01-10T00:11:17;2.40;99.90
38458;DHT22;24239;48.058;10.486;2023-01-10T00:14:04;2.30;99.90
38458;DHT22;24239;48.058;10.486;2023-01-10T00:16:31;2.40;99.90
38458;DHT22;24239;48.058;10.486;2023-01-10T00:18:57;2.30;99.90
38458;DHT22;24239;48.058;10.486;2023-01-10T00:21:24;2.30;99.90
38458;DHT22;24239;48.058;10.486;2023-01-10T00:23:52;2.30;99.90
38458;DHT22;24239;48.058;10.486;2023-01-10T00:26:19;2.40;99.90
38458;DHT22;24239;48.058;10.486;2023-01-10T00:28:47;2.40;99.90
38458;DHT22;24239;48.058;10.486;2023-01-10T00:31:13;2.50;99.90
38458;DHT22;24239;48.058;10.486;2023-01-10T00:33:41;2.60;99.90
38458;DHT22;24239;48.058;10.486;2023-01-10T00:36:09;2.60;99.90
38458;DHT22;24239;48.058;10.486;2023-01-10T00:38:36;2.60;99.90
38458;DHT22;24239;48.058;10.486;2023-01-10T00:41:02;2.70;99.90
38458;DHT22;24239;48.058;10.486;2023-01-10T00:43:49;2.70;99.90
38458;DHT22;24239;48.058;10.486;2023-01-10T00:46:23;2.80;99.90
38458;DHT22;24239;48.058;10.486;2023-01-10T00:48:52;2.80;99.90
38458;DHT22;24239;48.058;10.486;2023-01-10T00:51:20;2.70;99.90
38458;DHT22;24239;48.058;10.486;2023-01-10T00:53:57;2.60;99.90
38458;DHT22;24239;48.058;10.486;2023-01-10T00:56:23;2.70;99.90
38458;DHT22;24239;48.058;10.486;2023-01-10T00:58:49;2.60;99.90
38458;DHT22;24239;48.058;10.486;2023-01-10T01:01:15;2.60;99.90
38458;DHT22;24239;48.058;10.486;2023-01-10T01:03:42;2.60;99.90
38458;DHT22;24239;48.058;10.486;2023-01-10T01:06:09;2.60;99.90
38458;DHT22;24239;48.058;10.486;2023-01-10T01:08:37;2.50;99.90
38458;DHT22;24239;48.058;10.486;2023-01-10T01:11:03;2.40;99.90
38458;DHT22;24239;48.058;10.486;2023-01-10T01:13:30;2.50;99.90
38458;DHT22;24239;48.058;10.486;2023-01-10T01:15:58;2.40;99.90
38458;DHT22;24239;48.058;10.486;2023-01-10T01:18:27;2.40;99.90
38458;DHT22;24239;48.058;10.486;2023-01-10T01:20:58;2.50;99.90
38458;DHT22;24239;48.058;10.486;2023-01-10T01:23:31;2.50;99.90
38458;DHT22;24239;48.058;10.486;2023-01-10T01:25:57;2.50;99.90
38458;DHT22;24239;48.058;10.486;2023-01-10T01:28:29;2.60;99.90
38458;DHT22;24239;48.058;10.486;2023-01-10T01:30:58;2.50;99.90
38458;DHT22;24239;48.058;10.486;2023-01-10T01:33:25;2.60;99.90
38458;DHT22;24239;48.058;10.486;2023-01-10T01:36:07;2.60;99.90
38458;DHT22;24239;48.058;10.486;2023-01-10T01:38:36;2.40;99.90
38458;DHT22;24239;48.058;10.486;2023-01-10T01:41:03;2.60;99.90
38458;DHT22;24239;48.058;10.486;2023-01-10T01:44:01;2.60;99.90
38458;DHT22;24239;48.058;10.486;2023-01-10T01:46:29;2.50;99.90
38458;DHT22;24239;48.058;10.486;2023-01-10T01:48:58;2.60;99.90
38458;DHT22;24239;48.058;10.486;2023-01-10T01:51:31;2.60;99.90
38458;DHT22;24239;48.058;10.486;2023-01-10T01:54:08;2.60;99.90
38458;DHT22;24239;48.058;10.486;2023-01-10T01:56:45;2.60;99.90
38458;DHT22;24239;48.058;10.486;2023-01-10T01:59:27;2.60;99.90
38458;DHT22;24239;48.058;10.486;2023-01-10T02:02:03;2.70;99.90
38458;DHT22;24239;48.058;10.486;2023-01-10T02:04:50;2.70;99.90
38458;DHT22;24239;48.058;10.486;2023-01-10T02:07:20;2.60;99.90
38458;DHT22;24239;48.058;10.486;2023-01-10T02:10:00;2.80;99.90
38458;DHT22;24239;48.058;10.486;2023-01-10T02:12:31;2.70;99.90
38458;DHT22;24239;48.058;10.486;2023-01-10T02:14:58;2.70;99.90
38458;DHT22;24239;48.058;10.486;2023-01-10T02:17:25;2.70;99.90
38458;DHT22;24239;48.058;10.486;2023-01-10T02:19:57;2.70;99.90
38458;DHT22;24239;48.058;10.486;2023-01-10T02:22:56;2.70;99.90
38458;DHT22;24239;48.058;10.486;2023-01-10T02:36:59;2.90;99.90
38458;DHT22;24239;48.058;10.486;2023-01-10T02:42:23;2.90;99.90
38458;DHT22;24239;48.058;10.486;2023-01-10T02:47:49;2.80;99.90
38458;DHT22;24239;48.058;10.486;2023-01-10T02:53:15;2.90;99.90
38458;DHT22;24239;48.058;10.486;2023-01-10T02:56:21;2.80;99.90
38458;DHT22;24239;48.058;10.486;2023-01-10T02:59:00;2.90;99.90
38458;DHT22;24239;48.058;10.486;2023-01-10T03:06:53;2.90;99.90
38458;DHT22;24239;48.058;10.486;2023-01-10T03:09:59;3.00;99.90
38458;DHT22;24239;48.058;10.486;2023-01-10T03:12:55;3.00;99.90
38458;DHT22;24239;48.058;10.486;2023-01-10T03:15:25;3.10;99.90
38458;DHT22;24239;48.058;10.486;2023-01-10T03:17:55;3.10;99.90
38458;DHT22;24239;48.058;10.486;2023-01-10T03:20:23;3.00;99.90
38458;DHT22;24239;48.058;10.486;2023-01-10T03:22:53;3.00;99.90
38458;DHT22;24239;48.058;10.486;2023-01-10T03:25:27;2.90;99.90
38458;DHT22;24239;48.058;10.486;2023-01-10T03:28:10;3.00;99.90
38458;DHT22;24239;48.058;10.486;2023-01-10T03:33:40;3.00;99.90
38458;DHT22;24239;48.058;10.486;2023-01-10T03:36:29;2.80;99.90
38458;DHT22;24239;48.058;10.486;2023-01-10T03:39:04;2.90;99.90
38458;DHT22;24239;48.058;10.486;2023-01-10T03:42:03;2.90;99.90
38458;DHT22;24239;48.058;10.486;2023-01-10T03:47:43;2.80;99.90
38458;DHT22;24239;48.058;10.486;2023-01-10T03:50:22;2.70;99.90
38458;DHT22;24239;48.058;10.486;2023-01-10T03:52:49;2.60;99.90
38458;DHT22;24239;48.058;10.486;2023-01-10T03:55:19;2.50;99.90
38458;DHT22;24239;48.058;10.486;2023-01-10T03:57:46;2.50;99.90
38458;DHT22;24239;48.058;10.486;2023-01-10T04:00:15;2.50;99.90
38458;DHT22;24239;48.058;10.486;2023-01-10T04:02:43;2.40;99.90
38458;DHT22;24239;48.058;10.486;2023-01-10T04:05:09;2.40;99.90
38458;DHT22;24239;48.058;10.486;2023-01-10T04:07:38;2.50;99.90
38458;DHT22;24239;48.058;10.486;2023-01-10T04:10:06;2.50;99.90
38458;DHT22;24239;48.058;10.486;2023-01-10T04:12:34;2.40;99.90
38458;DHT22;24239;48.058;10.486;2023-01-10T04:15:00;2.50;99.90
38458;DHT22;24239;48.058;10.486;2023-01-10T04:17:27;2.50;99.90
38458;DHT22;24239;48.058;10.486;2023-01-10T04:19:55;2.50;99.90
38458;DHT22;24239;48.058;10.486;2023-01-10T04:22:21;2.50;99.90
38458;DHT22;24239;48.058;10.486;2023-01-10T04:24:47;2.50;99.90
38458;DHT22;24239;48.058;10.486;2023-01-10T04:27:17;2.60;99.90
38458;DHT22;24239;48.058;10.486;2023-01-10T04:29:43;2.70;99.90
38458;DHT22;24239;48.058;10.486;2023-01-10T04:32:09;2.60;99.90
38458;DHT22;24239;48.058;10.486;2023-01-10T04:34:35;2.50;99.90
38458;DHT22;24239;48.058;10.486;2023-01-10T04:37:02;2.50;99.90
38458;DHT22;24239;48.058;10.486;2023-01-10T04:39:28;2.50;99.90
38458;DHT22;24239;48.058;10.486;2023-01-10T04:41:57;2.60;99.90
38458;DHT22;24239;48.058;10.486;2023-01-10T04:44:28;2.60;99.90
38458;DHT22;24239;48.058;10.486;2023-01-10T04:46:56;2.60;99.90
38458;DHT22;24239;48.058;10.486;2023-01-10T04:49:24;2.80;99.90
38458;DHT22;24239;48.058;10.486;2023-01-10T04:51:50;2.70;99.90
38458;DHT22;24239;48.058;10.486;2023-01-10T04:54:22;2.60;99.90
38458;DHT22;24239;48.058;10.486;2023-01-10T04:56:49;2.60;99.90
38458;DHT22;24239;48.058;10.486;2023-01-10T04:59:17;2.70;99.90
38458;DHT22;24239;48.058;10.486;2023-01-10T05:01:46;2.50;99.90
38458;DHT22;24239;48.058;10.486;2023-01-10T05:04:12;2.70;99.90
38458;DHT22;24239;48.058;10.486;2023-01-10T05:06:38;2.60;99.90
38458;DHT22;24239;48.058;10.486;2023-01-10T05:09:09;2.60;99.90
38458;DHT22;24239;48.058;10.486;2023-01-10T05:11:35;2.70;99.90
38458;DHT22;24239;48.058;10.486;2023-01-10T05:14:03;2.60;99.90
38458;DHT22;24239;48.058;10.486;2023-01-10T05:16:32;2.60;99.90
38458;DHT22;24239;48.058;10.486;2023-01-10T05:19:01;2.60;99.90
38458;DHT22;24239;48.058;10.486;2023-01-10T05:21:27;2.60;99.90
38458;DHT22;24239;48.058;10.486;2023-01-10T05:23:54;2.60;99.90
38458;DHT22;24239;48.058;10.486;2023-01-10T05:26:25;2.60;99.90
38458;DHT22;24239;48.058;10.486;2023-01-10T05:28:52;2.50;99.90
38458;DHT22;24239;48.058;10.486;2023-01-10T05:31:22;2.50;99.90
38458;DHT22;24239;48.058;10.486;2023-01-10T05:33:49;2.50;99.90
38458;DHT22;24239;48.058;10.486;2023-01-10T05:36:19;2.60;99.90
38458;DHT22;24239;48.058;10.486;2023-01-10T05:38:51;2.40;99.90
38458;DHT22;24239;48.058;10.486;2023-01-10T05:41:17;2.50;99.90
38458;DHT22;24239;48.058;10.486;2023-01-10T05:43:43;2.40;99.90
38458;DHT22;24239;48.058;10.486;2023-01-10T05:46:10;2.40;99.90
38458;DHT22;24239;48.058;10.486;2023-01-10T05:48:36;2.40;99.90
38458;DHT22;24239;48.058;10.486;2023-01-10T05:51:02;2.40;99.90
38458;DHT22;24239;48.058;10.486;2023-01-10T05:53:28;2.40;99.90
38458;DHT22;24239;48.058;10.486;2023-01-10T05:55:59;2.50;99.90
38458;DHT22;24239;48.058;10.486;2023-01-10T05:58:27;2.40;99.90
38458;DHT22;24239;48.058;10.486;2023-01-10T06:00:54;2.50;99.90
38458;DHT22;24239;48.058;10.486;2023-01-10T06:03:20;2.50;99.90
38458;DHT22;24239;48.058;10.486;2023-01-10T06:05:55;2.50;99.90
38458;DHT22;24239;48.058;10.486;2023-01-10T06:08:22;2.50;99.90
38458;DHT22;24239;48.058;10.486;2023-01-10T06:10:50;2.50;99.90
38458;DHT22;24239;48.058;10.486;2023-01-10T06:13:17;2.50;99.90
38458;DHT22;24239;48.058;10.486;2023-01-10T06:15:43;2.50;99.90
38458;DHT22;24239;48.058;10.486;2023-01-10T06:18:10;2.50;99.90
38458;DHT22;24239;48.058;10.486;2023-01-10T06:20:37;2.50;99.90
38458;DHT22;24239;48.058;10.486;2023-01-10T06:23:02;2.50;99.90
38458;DHT22;24239;48.058;10.486;2023-01-10T06:25:30;2.50;99.90
38458;DHT22;24239;48.058;10.486;2023-01-10T06:28:02;2.50;99.90
38458;DHT22;24239;48.058;10.486;2023-01-10T06:30:31;2.40;99.90
38458;DHT22;24239;48.058;10.486;2023-01-10T06:33:01;2.40;99.90
38458;DHT22;24239;48.058;10.486;2023-01-10T06:35:32;2.30;99.90
38458;DHT22;24239;48.058;10.486;2023-01-10T06:37:59;2.40;99.90
38458;DHT22;24239;48.058;10.486;2023-01-10T06:40:27;2.30;99.90
38458;DHT22;24239;48.058;10.486;2023-01-10T06:42:54;2.30;99.90
38458;DHT22;24239;48.058;10.486;2023-01-10T06:45:20;2.30;99.90
38458;DHT22;24239;48.058;10.486;2023-01-10T06:47:46;2.30;99.90
38458;DHT22;24239;48.058;10.486;2023-01-10T06:50:13;2.40;99.90
38458;DHT22;24239;48.058;10.486;2023-01-10T06:52:40;2.30;99.90
38458;DHT22;24239;48.058;10.486;2023-01-10T06:55:07;2.30;99.90
38458;DHT22;24239;48.058;10.486;2023-01-10T06:57:34;2.30;99.90
38458;DHT22;24239;48.058;10.486;2023-01-10T07:00:11;2.40;99.90
38458;DHT22;24239;48.058;10.486;2023-01-10T07:02:37;2.30;99.90
38458;DHT22;24239;48.058;10.486;2023-01-10T07:05:03;2.60;99.90
38458;DHT22;24239;48.058;10.486;2023-01-10T07:07:31;2.30;99.90
38458;DHT22;24239;48.058;10.486;2023-01-10T07:10:00;2.40;99.90
38458;DHT22;24239;48.058;10.486;2023-01-10T07:12:25;2.60;99.90
38458;DHT22;24239;48.058;10.486;2023-01-10T07:14:51;2.50;99.90
38458;DHT22;24239;48.058;10.486;2023-01-10T07:17:17;2.40;99.90
38458;DHT22;24239;48.058;10.486;2023-01-10T07:19:43;2.40;99.90
38458;DHT22;24239;48.058;10.486;2023-01-10T07:22:12;2.50;99.90
38458;DHT22;24239;48.058;10.486;2023-01-10T07:24:40;2.50;99.90
38458;DHT22;24239;48.058;10.486;2023-01-10T07:27:06;2.50;99.90
38458;DHT22;24239;48.058;10.486;2023-01-10T07:29:32;2.50;99.90
38458;DHT22;24239;48.058;10.486;2023-01-10T07:32:02;2.50;99.90
38458;DHT22;24239;48.058;10.486;2023-01-10T07:34:31;2.40;99.90
38458;DHT22;24239;48.058;10.486;2023-01-10T07:36:57;2.50;99.90
38458;DHT22;24239;48.058;10.486;2023-01-10T07:39:23;2.40;99.90
38458;DHT22;24239;48.058;10.486;2023-01-10T07:41:52;2.40;99.90
38458;DHT22;24239;48.058;10.486;2023-01-10T07:44:19;2.50;99.90
38458;DHT22;24239;48.058;10.486;2023-01-10T07:46:45;2.50;99.90
38458;DHT22;24239;48.058;10.486;2023-01-10T07:49:12;2.60;99.90
38458;DHT22;24239;48.058;10.486;2023-01-10T07:51:41;2.60;99.90
38458;DHT22;24239;48.058;10.486;2023-01-10T07:54:06;2.60;99.90
38458;DHT22;24239;48.058;10.486;2023-01-10T07:56:34;2.60;99.90
38458;DHT22;24239;48.058;10.486;2023-01-10T07:59:03;2.60;99.90
38458;DHT22;24239;48.058;10.486;2023-01-10T08:01:30;2.70;99.90
38458;DHT22;24239;48.058;10.486;2023-01-10T08:03:57;2.70;99.90
38458;DHT22;24239;48.058;10.486;2023-01-10T08:06:23;2.70;99.90
38458;DHT22;24239;48.058;10.486;2023-01-10T08:08:49;2.80;99.90
38458;DHT22;24239;48.058;10.486;2023-01-10T08:11:15;2.70;99.90
38458;DHT22;24239;48.058;10.486;2023-01-10T08:13:43;2.80;99.90
38458;DHT22;24239;48.058;10.486;2023-01-10T08:16:13;2.60;99.90
38458;DHT22;24239;48.058;10.486;2023-01-10T08:18:40;2.70;99.90
38458;DHT22;24239;48.058;10.486;2023-01-10T08:21:08;2.70;99.90
38458;DHT22;24239;48.058;10.486;2023-01-10T08:23:36;2.70;99.90
38458;DHT22;24239;48.058;10.486;2023-01-10T08:26:06;2.70;99.90
38458;DHT22;24239;48.058;10.486;2023-01-10T08:28:41;2.80;99.90
38458;DHT22;24239;48.058;10.486;2023-01-10T08:31:09;2.80;99.90
38458;DHT22;24239;48.058;10.486;2023-01-10T08:33:39;2.70;99.90
38458;DHT22;24239;48.058;10.486;2023-01-10T08:36:05;2.70;99.90
38458;DHT22;24239;48.058;10.486;2023-01-10T08:38:40;2.70;99.90
38458;DHT22;24239;48.058;10.486;2023-01-10T08:41:06;2.70;99.90
38458;DHT22;24239;48.058;10.486;2023-01-10T08:43:32;2.70;99.90
38458;DHT22;24239;48.058;10.486;2023-01-10T08:45:58;2.80;99.90
38458;DHT22;24239;48.058;10.486;2023-01-10T08:48:25;2.70;99.90
38458;DHT22;24239;48.058;10.486;2023-01-10T08:50:53;2.70;99.90
38458;DHT22;24239;48.058;10.486;2023-01-10T08:53:23;2.80;99.90
38458;DHT22;24239;48.058;10.486;2023-01-10T08:55:51;2.90;99.90
38458;DHT22;24239;48.058;10.486;2023-01-10T08:58:17;3.00;99.90
38458;DHT22;24239;48.058;10.486;2023-01-10T09:00:43;3.00;99.90
38458;DHT22;24239;48.058;10.486;2023-01-10T09:03:11;3.10;99.90
38458;DHT22;24239;48.058;10.486;2023-01-10T09:05:37;3.10;99.90
38458;DHT22;24239;48.058;10.486;2023-01-10T09:08:03;3.30;99.90
38458;DHT22;24239;48.058;10.486;2023-01-10T09:10:30;3.40;99.90
38458;DHT22;24239;48.058;10.486;2023-01-10T09:12:59;3.40;99.90
38458;DHT22;24239;48.058;10.486;2023-01-10T09:15:31;3.30;99.90
38458;DHT22;24239;48.058;10.486;2023-01-10T09:18:04;3.50;99.90
38458;DHT22;24239;48.058;10.486;2023-01-10T09:20:35;3.50;99.90
38458;DHT22;24239;48.058;10.486;2023-01-10T09:23:15;3.50;99.90
38458;DHT22;24239;48.058;10.486;2023-01-10T09:25:45;3.60;99.90
38458;DHT22;24239;48.058;10.486;2023-01-10T09:28:12;3.60;99.90
38458;DHT22;24239;48.058;10.486;2023-01-10T09:30:39;3.70;99.90
38458;DHT22;24239;48.058;10.486;2023-01-10T09:33:06;3.60;99.90
38458;DHT22;24239;48.058;10.486;2023-01-10T09:35:36;3.70;99.90
38458;DHT22;24239;48.058;10.486;2023-01-10T09:38:05;3.70;99.90
38458;DHT22;24239;48.058;10.486;2023-01-10T09:51:57;4.00;99.90
38458;DHT22;24239;48.058;10.486;2023-01-10T09:54:35;4.10;99.90
38458;DHT22;24239;48.058;10.486;2023-01-10T09:57:04;3.90;99.90
38458;DHT22;24239;48.058;10.486;2023-01-10T09:59:39;4.00;99.90
38458;DHT22;24239;48.058;10.486;2023-01-10T10:02:55;3.90;99.90
38458;DHT22;24239;48.058;10.486;2023-01-10T10:05:11;3.80;99.90
38458;DHT22;24239;48.058;10.486;2023-01-10T10:07:40;3.90;99.90
38458;DHT22;24239;48.058;10.486;2023-01-10T10:10:21;3.80;99.90
38458;DHT22;24239;48.058;10.486;2023-01-10T10:13:02;3.60;99.90
38458;DHT22;24239;48.058;10.486;2023-01-10T10:15:50;3.80;99.90
38458;DHT22;24239;48.058;10.486;2023-01-10T10:18:41;3.60;99.90
38458;DHT22;24239;48.058;10.486;2023-01-10T10:22:00;3.60;99.90
38458;DHT22;24239;48.058;10.486;2023-01-10T10:37:51;3.60;99.90
38458;DHT22;24239;48.058;10.486;2023-01-10T10:42:59;3.70;99.90
38458;DHT22;24239;48.058;10.486;2023-01-10T10:45:39;3.90;99.90
38458;DHT22;24239;48.058;10.486;2023-01-10T10:48:20;4.00;99.90
38458;DHT22;24239;48.058;10.486;2023-01-10T10:51:08;4.00;99.90
38458;DHT22;24239;48.058;10.486;2023-01-10T10:53:59;4.10;99.90
38458;DHT22;24239;48.058;10.486;2023-01-10T10:56:26;4.10;99.90
38458;DHT22;24239;48.058;10.486;2023-01-10T10:58:55;4.00;99.90
38458;DHT22;24239;48.058;10.486;2023-01-10T11:01:23;4.10;99.90
38458;DHT22;24239;48.058;10.486;2023-01-10T11:03:54;4.40;99.90
38458;DHT22;24239;48.058;10.486;2023-01-10T11:06:24;4.50;99.90
38458;DHT22;24239;48.058;10.486;2023-01-10T11:08:55;4.60;99.90
38458;DHT22;24239;48.058;10.486;2023-01-10T11:11:34;4.60;99.90
38458;DHT22;24239;48.058;10.486;2023-01-10T11:14:06;4.70;99.90
38458;DHT22;24239;48.058;10.486;2023-01-10T11:16:40;4.70;99.90
38458;DHT22;24239;48.058;10.486;2023-01-10T11:19:20;4.60;99.90
38458;DHT22;24239;48.058;10.486;2023-01-10T11:22:04;4.60;99.90
38458;DHT22;24239;48.058;10.486;2023-01-10T11:24:38;4.70;99.90
38458;DHT22;24239;48.058;10.486;2023-01-10T11:27:16;4.70;99.90
38458;DHT22;24239;48.058;10.486;2023-01-10T11:29:46;4.90;99.90
38458;DHT22;24239;48.058;10.486;2023-01-10T11:32:16;5.00;99.90
38458;DHT22;24239;48.058;10.486;2023-01-10T11:34:49;4.90;99.90
38458;DHT22;24239;48.058;10.486;2023-01-10T11:37:24;4.70;99.90
38458;DHT22;24239;48.058;10.486;2023-01-10T11:42:43;4.90;99.90
38458;DHT22;24239;48.058;10.486;2023-01-10T11:47:50;4.90;99.90
38458;DHT22;24239;48.058;10.486;2023-01-10T11:50:25;5.00;99.90
38458;DHT22;24239;48.058;10.486;2023-01-10T11:52:55;5.10;99.90
38458;DHT22;24239;48.058;10.486;2023-01-10T11:55:24;5.20;99.90
38458;DHT22;24239;48.058;10.486;2023-01-10T11:58:12;5.10;99.90
38458;DHT22;24239;48.058;10.486;2023-01-10T12:00:46;5.10;99.90
38458;DHT22;24239;48.058;10.486;2023-01-10T12:03:26;5.10;99.90
38458;DHT22;24239;48.058;10.486;2023-01-10T12:06:00;5.20;99.90
38458;DHT22;24239;48.058;10.486;2023-01-10T12:08:38;5.30;99.90
38458;DHT22;24239;48.058;10.486;2023-01-10T12:13:54;5.20;99.90
38458;DHT22;24239;48.058;10.486;2023-01-10T12:16:24;5.10;99.90
38458;DHT22;24239;48.058;10.486;2023-01-10T12:19:01;5.10;99.90
38458;DHT22;24239;48.058;10.486;2023-01-10T12:21:43;5.10;99.90
38458;DHT22;24239;48.058;10.486;2023-01-10T12:24:22;5.10;99.90
38458;DHT22;24239;48.058;10.486;2023-01-10T12:26:50;5.10;99.90
38458;DHT22;24239;48.058;10.486;2023-01-10T12:29:26;5.40;99.90
38458;DHT22;24239;48.058;10.486;2023-01-10T12:31:53;5.40;99.90
38458;DHT22;24239;48.058;10.486;2023-01-10T12:34:23;5.50;99.90
38458;DHT22;24239;48.058;10.486;2023-01-10T12:38:13;5.50;99.90
38458;DHT22;24239;48.058;10.486;2023-01-10T12:43:04;5.50;99.90
38458;DHT22;24239;48.058;10.486;2023-01-10T12:45:55;5.60;99.90
38458;DHT22;24239;48.058;10.486;2023-01-10T12:51:06;5.60;99.90
38458;DHT22;24239;48.058;10.486;2023-01-10T12:53:43;5.70;99.90
38458;DHT22;24239;48.058;10.486;2023-01-10T12:56:13;5.70;99.90
38458;DHT22;24239;48.058;10.486;2023-01-10T12:59:03;5.80;99.90
38458;DHT22;24239;48.058;10.486;2023-01-10T13:01:32;5.80;99.90
38458;DHT22;24239;48.058;10.486;2023-01-10T13:04:04;5.60;99.90
38458;DHT22;24239;48.058;10.486;2023-01-10T13:06:41;5.50;99.90
38458;DHT22;24239;48.058;10.486;2023-01-10T13:12:01;5.30;99.90
38458;DHT22;24239;48.058;10.486;2023-01-10T13:14:47;5.30;99.90
38458;DHT22;24239;48.058;10.486;2023-01-10T13:17:36;5.20;99.90
38458;DHT22;24239;48.058;10.486;2023-01-10T13:20:35;5.30;99.90
38458;DHT22;24239;48.058;10.486;2023-01-10T13:23:19;5.30;99.90
38458;DHT22;24239;48.058;10.486;2023-01-10T13:25:54;5.30;99.90
38458;DHT22;24239;48.058;10.486;2023-01-10T13:28:28;5.40;99.90
38458;DHT22;24239;48.058;10.486;2023-01-10T13:31:01;5.40;99.90
38458;DHT22;24239;48.058;10.486;2023-01-10T13:33:32;5.20;99.90
38458;DHT22;24239;48.058;10.486;2023-01-10T13:36:16;5.10;99.90
38458;DHT22;24239;48.058;10.486;2023-01-10T13:41:19;5.10;99.90
38458;DHT22;24239;48.058;10.486;2023-01-10T13:44:10;5.10;99.90
38458;DHT22;24239;48.058;10.486;2023-01-10T13:46:49;4.90;99.90
38458;DHT22;24239;48.058;10.486;2023-01-10T13:49:38;4.80;99.90
38458;DHT22;24239;48.058;10.486;2023-01-10T13:52:32;4.90;99.90
38458;DHT22;24239;48.058;10.486;2023-01-10T13:55:18;4.80;99.90
38458;DHT22;24239;48.058;10.486;2023-01-10T14:06:34;4.60;99.90
38458;DHT22;24239;48.058;10.486;2023-01-10T14:16:51;4.40;99.90
38458;DHT22;24239;48.058;10.486;2023-01-10T14:19:26;4.40;99.90
38458;DHT22;24239;48.058;10.486;2023-01-10T14:21:56;4.10;99.90
38458;DHT22;24239;48.058;10.486;2023-01-10T14:24:25;4.00;99.90
38458;DHT22;24239;48.058;10.486;2023-01-10T14:26:54;4.00;99.90
38458;DHT22;24239;48.058;10.486;2023-01-10T14:29:22;4.10;99.90
38458;DHT22;24239;48.058;10.486;2023-01-10T14:31:53;3.90;99.90
38458;DHT22;24239;48.058;10.486;2023-01-10T14:34:29;3.90;99.90
38458;DHT22;24239;48.058;10.486;2023-01-10T14:36:58;3.90;99.90
38458;DHT22;24239;48.058;10.486;2023-01-10T14:39:28;3.80;99.90
38458;DHT22;24239;48.058;10.486;2023-01-10T14:42:02;3.80;99.90
38458;DHT22;24239;48.058;10.486;2023-01-10T14:44:35;3.70;99.90
38458;DHT22;24239;48.058;10.486;2023-01-10T14:47:29;3.60;99.90
38458;DHT22;24239;48.058;10.486;2023-01-10T14:49:56;3.60;99.90
38458;DHT22;24239;48.058;10.486;2023-01-10T14:52:28;3.60;99.90
38458;DHT22;24239;48.058;10.486;2023-01-10T14:55:13;3.60;99.90
38458;DHT22;24239;48.058;10.486;2023-01-10T14:57:56;3.70;99.90
38458;DHT22;24239;48.058;10.486;2023-01-10T15:00:29;3.70;99.90
38458;DHT22;24239;48.058;10.486;2023-01-10T15:02:59;3.60;99.90
38458;DHT22;24239;48.058;10.486;2023-01-10T15:05:37;3.50;99.90
38458;DHT22;24239;48.058;10.486;2023-01-10T15:10:56;3.40;99.90
38458;DHT22;24239;48.058;10.486;2023-01-10T15:13:28;3.40;99.90
38458;DHT22;24239;48.058;10.486;2023-01-10T15:15:58;3.40;99.90
38458;DHT22;24239;48.058;10.486;2023-01-10T15:18:40;3.20;99.90
38458;DHT22;24239;48.058;10.486;2023-01-10T15:21:13;3.10;99.90
38458;DHT22;24239;48.058;10.486;2023-01-10T15:23:45;3.00;99.90
38458;DHT22;24239;48.058;10.486;2023-01-10T15:26:16;3.00;99.90
38458;DHT22;24239;48.058;10.486;2023-01-10T15:28:47;2.90;99.90
38458;DHT22;24239;48.058;10.486;2023-01-10T15:31:29;2.70;99.90
38458;DHT22;24239;48.058;10.486;2023-01-10T15:33:55;2.60;99.90
38458;DHT22;24239;48.058;10.486;2023-01-10T15:36:26;2.50;99.90
38458;DHT22;24239;48.058;10.486;2023-01-10T15:38:54;2.50;99.90
38458;DHT22;24239;48.058;10.486;2023-01-10T15:41:22;2.40;99.90
38458;DHT22;24239;48.058;10.486;2023-01-10T15:43:53;2.30;99.90
38458;DHT22;24239;48.058;10.486;2023-01-10T15:46:25;2.20;99.90
38458;DHT22;24239;48.058;10.486;2023-01-10T15:49:00;2.20;99.90
38458;DHT22;24239;48.058;10.486;2023-01-10T15:51:31;2.10;99.90
38458;DHT22;24239;48.058;10.486;2023-01-10T15:56:52;2.10;99.90
38458;DHT22;24239;48.058;10.486;2023-01-10T15:59:28;1.90;99.90
38458;DHT22;24239;48.058;10.486;2023-01-10T16:04:34;1.70;99.90
38458;DHT22;24239;48.058;10.486;2023-01-10T16:12:43;1.50;99.90
38458;DHT22;24239;48.058;10.486;2023-01-10T16:15:32;1.40;99.90
38458;DHT22;24239;48.058;10.486;2023-01-10T16:18:03;1.40;99.90
38458;DHT22;24239;48.058;10.486;2023-01-10T16:20:42;1.30;99.90
38458;DHT22;24239;48.058;10.486;2023-01-10T16:23:19;1.30;99.90
38458;DHT22;24239;48.058;10.486;2023-01-10T16:25:52;1.10;99.90
38458;DHT22;24239;48.058;10.486;2023-01-10T16:28:20;1.00;99.90
38458;DHT22;24239;48.058;10.486;2023-01-10T16:30:47;0.90;99.90
38458;DHT22;24239;48.058;10.486;2023-01-10T16:33:18;1.00;99.90
38458;DHT22;24239;48.058;10.486;2023-01-10T16:35:49;0.90;99.90
38458;DHT22;24239;48.058;10.486;2023-01-10T16:38:16;0.80;99.90
38458;DHT22;24239;48.058;10.486;2023-01-10T16:43:16;0.80;99.90
38458;DHT22;24239;48.058;10.486;2023-01-10T16:45:52;0.70;99.90
38458;DHT22;24239;48.058;10.486;2023-01-10T16:48:19;0.60;99.90
38458;DHT22;24239;48.058;10.486;2023-01-10T16:50:49;0.60;99.90
38458;DHT22;24239;48.058;10.486;2023-01-10T16:53:17;0.40;99.90
38458;DHT22;24239;48.058;10.486;2023-01-10T16:55:44;0.40;99.90
38458;DHT22;24239;48.058;10.486;2023-01-10T16:58:12;0.30;99.90
38458;DHT22;24239;48.058;10.486;2023-01-10T17:00:40;0.60;99.90
38458;DHT22;24239;48.058;10.486;2023-01-10T17:03:12;0.30;99.90
38458;DHT22;24239;48.058;10.486;2023-01-10T17:05:44;0.20;99.90
38458;DHT22;24239;48.058;10.486;2023-01-10T17:08:22;0.20;99.90
38458;DHT22;24239;48.058;10.486;2023-01-10T17:10:55;0.10;99.90
38458;DHT22;24239;48.058;10.486;2023-01-10T17:13:31;0.10;99.90
38458;DHT22;24239;48.058;10.486;2023-01-10T17:15:58;0.10;99.90
38458;DHT22;24239;48.058;10.486;2023-01-10T17:18:25;0.10;99.90
38458;DHT22;24239;48.058;10.486;2023-01-10T17:20:54;0.10;99.90
38458;DHT22;24239;48.058;10.486;2023-01-10T17:23:21;-0.10;99.90
38458;DHT22;24239;48.058;10.486;2023-01-10T17:25:47;-0.20;99.90
38458;DHT22;24239;48.058;10.486;2023-01-10T17:28:16;-0.20;99.90
38458;DHT22;24239;48.058;10.486;2023-01-10T17:30:44;-0.30;99.90
38458;DHT22;24239;48.058;10.486;2023-01-10T17:33:10;-0.30;99.90
38458;DHT22;24239;48.058;10.486;2023-01-10T17:35:39;-0.10;99.90
38458;DHT22;24239;48.058;10.486;2023-01-10T17:38:05;-0.20;99.90
38458;DHT22;24239;48.058;10.486;2023-01-10T17:40:33;-0.40;99.90
38458;DHT22;24239;48.058;10.486;2023-01-10T17:43:01;-0.30;99.90
38458;DHT22;24239;48.058;10.486;2023-01-10T17:45:28;-0.30;99.90
38458;DHT22;24239;48.058;10.486;2023-01-10T17:47:54;-0.40;99.90
38458;DHT22;24239;48.058;10.486;2023-01-10T17:50:22;-0.40;99.90